createdAt,value
2019-04-04T00:04:01.428Z,6.6
2019-04-04T00:14:01.545Z,6.7
2019-04-04T00:19:01.372Z,6.8
2019-04-04T00:34:01.370Z,6.8
2019-04-04T00:39:01.275Z,6.9
2019-04-04T00:54:01.481Z,7.0
2019-04-04T01:09:01.391Z,7.0
2019-04-04T01:19:01.325Z,7.1
2019-04-04T01:29:01.391Z,7.2
2019-04-04T01:39:01.480Z,7.3
2019-04-04T01:49:01.470Z,7.4
2019-04-04T02:04:01.377Z,7.4
2019-04-04T02:09:02.761Z,7.3
2019-04-04T02:24:01.999Z,7.2
2019-04-04T02:34:05.060Z,7.1
2019-04-04T02:49:01.376Z,7.1
2019-04-04T02:59:01.394Z,7.0
2019-04-04T03:14:03.677Z,7.0
2019-04-04T03:24:05.784Z,6.9
2019-04-04T03:34:08.209Z,7.0
2019-04-04T03:49:01.456Z,7.0
2019-04-04T04:04:01.494Z,7.0
2019-04-04T04:19:01.414Z,6.9
2019-04-04T04:24:01.333Z,6.8
2019-04-04T04:29:01.271Z,6.7
2019-04-04T04:34:02.184Z,6.6
2019-04-04T04:39:01.346Z,6.5
2019-04-04T04:44:06.535Z,6.4
2019-04-04T04:49:04.417Z,6.3
2019-04-04T04:54:01.364Z,6.2
2019-04-04T05:00:11.353Z,6.2
2019-04-04T05:05:01.292Z,6.1
2019-04-04T05:15:02.375Z,6.0
2019-04-04T05:20:01.331Z,5.9
2019-04-04T05:30:01.369Z,5.8
2019-04-04T05:40:01.298Z,5.7
2019-04-04T05:45:01.101Z,5.7
2019-04-04T05:50:01.327Z,5.8
2019-04-04T06:00:01.327Z,5.9
2019-04-04T06:10:01.308Z,6.1
2019-04-04T06:15:06.325Z,6.2
2019-04-04T06:20:01.293Z,6.4
2019-04-04T06:25:02.496Z,6.6
2019-04-04T06:30:01.102Z,6.8
2019-04-04T06:35:01.300Z,6.9
2019-04-04T06:40:01.326Z,7.1
2019-04-04T06:45:01.300Z,7.1
2019-04-04T06:50:01.371Z,7.2
2019-04-04T06:55:01.318Z,7.3
2019-04-04T07:00:01.347Z,7.3
2019-04-04T07:05:01.245Z,7.4
2019-04-04T07:15:01.399Z,7.5
2019-04-04T07:20:01.338Z,7.6
2019-04-04T07:31:01.578Z,7.7
2019-04-04T07:36:01.407Z,7.8
2019-04-04T07:41:01.313Z,8.0
2019-04-04T07:46:15.255Z,8.1
2019-04-04T07:51:01.451Z,8.2
2019-04-04T07:56:01.440Z,8.3
2019-04-04T08:06:01.460Z,8.2
2019-04-04T08:16:01.490Z,8.1
2019-04-04T08:21:01.428Z,8.2
2019-04-04T08:26:01.316Z,8.3
2019-04-04T08:36:06.753Z,8.4
2019-04-04T08:41:01.341Z,8.5
2019-04-04T08:51:01.334Z,8.6
2019-04-04T08:56:01.387Z,8.7
2019-04-04T09:01:01.465Z,8.9
2019-04-04T09:06:01.391Z,9.0
2019-04-04T09:11:01.335Z,9.2
2019-04-04T09:16:01.660Z,9.4
2019-04-04T09:21:01.413Z,9.5
2019-04-04T09:26:05.664Z,9.6
2019-04-04T09:31:01.322Z,9.7
2019-04-04T09:37:01.403Z,9.8
2019-04-04T09:42:01.309Z,9.9
2019-04-04T09:47:05.458Z,10.1
2019-04-04T09:52:01.303Z,10.3
2019-04-04T10:02:01.187Z,10.5
2019-04-04T10:07:01.434Z,10.6
2019-04-04T10:12:01.417Z,10.9
2019-04-04T10:17:01.372Z,11.2
2019-04-04T10:22:01.554Z,11.6
2019-04-04T10:27:01.559Z,11.8
2019-04-04T10:32:01.365Z,12.1
2019-04-04T10:37:01.465Z,12.2
2019-04-04T10:42:01.364Z,12.3
2019-04-04T10:52:01.528Z,12.5
2019-04-04T10:57:01.431Z,12.6
2019-04-04T11:02:01.372Z,12.7
2019-04-04T11:07:01.456Z,12.9
2019-04-04T11:17:01.200Z,12.8
2019-04-04T11:22:01.329Z,12.9
2019-04-04T11:28:01.457Z,13.1
2019-04-04T11:33:01.410Z,13.3
2019-04-04T11:38:01.352Z,13.5
2019-04-04T11:43:01.519Z,13.7
2019-04-04T11:53:01.442Z,13.6
2019-04-04T11:58:01.341Z,13.5
2019-04-04T12:03:01.476Z,13.4
2019-04-04T12:18:01.299Z,13.6
2019-04-04T12:23:01.522Z,13.9
2019-04-04T12:28:01.460Z,14.0
2019-04-04T12:33:01.474Z,14.1
2019-04-04T12:38:01.476Z,14.4
2019-04-04T12:43:01.432Z,14.5
2019-04-04T12:48:01.394Z,14.7
2019-04-04T12:53:01.466Z,15.0
2019-04-04T12:58:01.388Z,15.3
2019-04-04T13:03:01.525Z,15.4
2019-04-04T13:08:01.412Z,15.6
2019-04-04T13:13:01.520Z,15.7
2019-04-04T13:18:01.357Z,15.9
2019-04-04T13:23:01.504Z,16.2
2019-04-04T13:28:01.395Z,16.4
2019-04-04T13:33:01.545Z,16.5
2019-04-04T13:38:01.426Z,16.6
2019-04-04T13:43:01.518Z,16.5
2019-04-04T13:48:01.399Z,16.4
2019-04-04T13:53:01.471Z,16.2
2019-04-04T13:58:01.446Z,16.0
2019-04-04T14:03:01.466Z,15.9
2019-04-04T14:08:01.483Z,15.7
2019-04-04T14:13:01.520Z,15.6
2019-04-04T14:18:01.432Z,15.5
2019-04-04T14:28:01.534Z,15.4
2019-04-04T14:33:01.560Z,15.3
2019-04-04T14:43:01.528Z,15.2
2019-04-04T14:48:01.385Z,15.1
2019-04-04T14:58:01.538Z,15.0
2019-04-04T15:13:01.448Z,15.0
2019-04-04T15:28:01.547Z,15.1
2019-04-04T15:43:01.564Z,15.1
2019-04-04T15:48:01.391Z,15.0
2019-04-04T15:53:01.442Z,14.9
2019-04-04T15:58:01.390Z,14.8
2019-04-04T16:08:01.524Z,14.6
2019-04-04T16:13:01.511Z,14.5
2019-04-04T16:18:01.798Z,14.2
2019-04-04T16:23:01.537Z,14.1
2019-04-04T16:28:01.529Z,13.9
2019-04-04T16:33:01.623Z,13.7
2019-04-04T16:48:01.560Z,13.7
2019-04-04T17:03:01.542Z,13.6
2019-04-04T17:08:01.549Z,13.4
2019-04-04T17:13:01.550Z,13.3
2019-04-04T17:18:01.427Z,13.0
2019-04-04T17:23:01.451Z,12.7
2019-04-04T17:28:01.513Z,12.3
2019-04-04T17:33:01.509Z,12.1
2019-04-04T17:38:01.855Z,11.7
2019-04-04T17:44:01.449Z,11.5
2019-04-04T17:49:02.089Z,11.2
2019-04-04T17:54:01.619Z,11.0
2019-04-04T17:59:01.479Z,10.7
2019-04-04T18:04:01.539Z,10.5
2019-04-04T18:09:01.488Z,10.2
2019-04-04T18:14:01.498Z,10.0
2019-04-04T18:19:01.501Z,9.7
2019-04-04T18:25:01.440Z,9.5
2019-04-04T18:30:01.480Z,9.2
2019-04-04T18:35:01.651Z,9.1
2019-04-04T18:40:01.556Z,8.9
2019-04-04T18:45:01.445Z,8.8
2019-04-04T18:50:01.440Z,8.7
2019-04-04T18:55:01.474Z,8.6
2019-04-04T19:00:01.504Z,8.5
2019-04-04T19:05:01.508Z,8.4
2019-04-04T19:10:01.257Z,8.3
2019-04-04T19:15:01.406Z,8.2
2019-04-04T19:25:01.373Z,8.1
2019-04-04T19:30:01.321Z,8.0
2019-04-04T19:35:01.373Z,7.9
2019-04-04T19:40:01.459Z,7.8
2019-04-04T19:45:01.458Z,7.7
2019-04-04T19:50:01.308Z,7.6
2019-04-04T19:55:01.357Z,7.5
2019-04-04T20:00:01.402Z,7.4
2019-04-04T20:11:02.492Z,7.3
2019-04-04T20:16:01.377Z,7.2
2019-04-04T20:31:01.412Z,7.1
2019-04-04T20:41:01.578Z,7.0
2019-04-04T20:46:01.417Z,6.9
2019-04-04T20:51:01.347Z,6.8
2019-04-04T20:56:01.560Z,6.7
2019-04-04T21:06:01.380Z,6.6
2019-04-04T21:21:01.419Z,6.6
2019-04-04T21:31:01.368Z,6.7
2019-04-04T21:46:01.393Z,6.7
2019-04-04T21:51:01.313Z,6.8
2019-04-04T22:06:01.449Z,6.8
2019-04-04T22:11:02.351Z,6.7
2019-04-04T22:26:01.347Z,6.7
2019-04-04T22:31:01.301Z,6.6
2019-04-04T22:46:01.533Z,6.5
2019-04-04T23:01:01.442Z,6.5
2019-04-04T23:12:01.496Z,6.6
2019-04-04T23:22:01.481Z,6.7
2019-04-04T23:37:01.523Z,6.8
2019-04-04T23:42:01.304Z,6.7
2019-04-04T23:57:01.459Z,6.6
